sensor_id;sensor_type;location;lat;lon;timestamp;temperature;humidity
28087;DHT22;15392;48.912;8.380;2023-05-01T00:00:08;17.60;45.20
28087;DHT22;15392;48.912;8.380;2023-05-01T00:02:35;17.50;45.00
28087;DHT22;15392;48.912;8.380;2023-05-01T00:05:02;17.60;45.10
28087;DHT22;15392;48.912;8.380;2023-05-01T00:07:28;17.60;45.10
28087;DHT22;15392;48.912;8.380;2023-05-01T00:09:58;17.70;45.10
28087;DHT22;15392;48.912;8.380;2023-05-01T00:12:25;17.70;45.00
28087;DHT22;15392;48.912;8.380;2023-05-01T00:14:52;17.70;45.20
28087;DHT22;15392;48.912;8.380;2023-05-01T00:17:18;17.80;45.00
28087;DHT22;15392;48.912;8.380;2023-05-01T00:19:44;17.80;45.10
28087;DHT22;15392;48.912;8.380;2023-05-01T00:22:10;17.80;44.90
28087;DHT22;15392;48.912;8.380;2023-05-01T00:24:35;17.80;44.70
28087;DHT22;15392;48.912;8.380;2023-05-01T00:27:01;17.90;44.60
28087;DHT22;15392;48.912;8.380;2023-05-01T00:29:28;17.90;44.80
28087;DHT22;15392;48.912;8.380;2023-05-01T00:31:54;17.90;44.60
28087;DHT22;15392;48.912;8.380;2023-05-01T00:34:20;18.00;44.80
28087;DHT22;15392;48.912;8.380;2023-05-01T00:36:46;18.00;44.70
28087;DHT22;15392;48.912;8.380;2023-05-01T00:39:12;18.00;44.70
28087;DHT22;15392;48.912;8.380;2023-05-01T00:41:37;18.00;44.70
28087;DHT22;15392;48.912;8.380;2023-05-01T00:44:03;18.10;44.90
28087;DHT22;15392;48.912;8.380;2023-05-01T00:46:31;18.10;44.80
28087;DHT22;15392;48.912;8.380;2023-05-01T00:48:58;18.10;45.00
28087;DHT22;15392;48.912;8.380;2023-05-01T00:51:25;18.20;45.40
28087;DHT22;15392;48.912;8.380;2023-05-01T00:53:54;18.20;45.60
28087;DHT22;15392;48.912;8.380;2023-05-01T00:56:20;18.20;45.80
28087;DHT22;15392;48.912;8.380;2023-05-01T00:58:49;18.20;45.90
28087;DHT22;15392;48.912;8.380;2023-05-01T01:01:21;18.20;46.00
28087;DHT22;15392;48.912;8.380;2023-05-01T01:03:48;18.20;45.90
28087;DHT22;15392;48.912;8.380;2023-05-01T01:12:02;18.20;45.80
28087;DHT22;15392;48.912;8.380;2023-05-01T01:14:47;18.20;46.00
28087;DHT22;15392;48.912;8.380;2023-05-01T01:17:30;18.20;46.00
28087;DHT22;15392;48.912;8.380;2023-05-01T01:26:32;18.10;46.20
28087;DHT22;15392;48.912;8.380;2023-05-01T01:35:05;18.00;46.30
28087;DHT22;15392;48.912;8.380;2023-05-01T01:37:40;18.00;46.40
28087;DHT22;15392;48.912;8.380;2023-05-01T01:40:15;18.00;46.40
28087;DHT22;15392;48.912;8.380;2023-05-01T01:43:04;17.90;46.40
28087;DHT22;15392;48.912;8.380;2023-05-01T01:45:42;17.90;46.50
28087;DHT22;15392;48.912;8.380;2023-05-01T01:48:24;17.90;46.60
28087;DHT22;15392;48.912;8.380;2023-05-01T01:50:53;17.90;46.50
28087;DHT22;15392;48.912;8.380;2023-05-01T01:53:24;17.80;46.50
28087;DHT22;15392;48.912;8.380;2023-05-01T01:55:53;17.80;46.60
28087;DHT22;15392;48.912;8.380;2023-05-01T01:58:20;17.80;46.60
28087;DHT22;15392;48.912;8.380;2023-05-01T02:00:52;17.80;46.70
28087;DHT22;15392;48.912;8.380;2023-05-01T02:03:19;17.80;46.70
28087;DHT22;15392;48.912;8.380;2023-05-01T02:05:47;17.70;46.80
28087;DHT22;15392;48.912;8.380;2023-05-01T02:08:15;17.70;46.90
28087;DHT22;15392;48.912;8.380;2023-05-01T02:10:43;17.70;47.00
28087;DHT22;15392;48.912;8.380;2023-05-01T02:13:09;17.70;46.90
28087;DHT22;15392;48.912;8.380;2023-05-01T02:15:39;17.70;46.90
28087;DHT22;15392;48.912;8.380;2023-05-01T02:18:05;17.70;46.90
28087;DHT22;15392;48.912;8.380;2023-05-01T02:20:32;17.70;46.90
28087;DHT22;15392;48.912;8.380;2023-05-01T02:22:58;17.70;47.00
28087;DHT22;15392;48.912;8.380;2023-05-01T02:25:26;17.70;47.00
28087;DHT22;15392;48.912;8.380;2023-05-01T02:27:56;17.60;46.90
28087;DHT22;15392;48.912;8.380;2023-05-01T02:30:25;17.60;47.00
28087;DHT22;15392;48.912;8.380;2023-05-01T02:32:51;17.70;47.00
28087;DHT22;15392;48.912;8.380;2023-05-01T02:35:17;17.60;46.90
28087;DHT22;15392;48.912;8.380;2023-05-01T02:37:43;17.60;46.90
28087;DHT22;15392;48.912;8.380;2023-05-01T02:40:12;17.60;47.50
28087;DHT22;15392;48.912;8.380;2023-05-01T02:42:41;17.60;46.90
28087;DHT22;15392;48.912;8.380;2023-05-01T02:45:13;17.60;46.90
28087;DHT22;15392;48.912;8.380;2023-05-01T02:47:43;17.60;46.90
28087;DHT22;15392;48.912;8.380;2023-05-01T02:50:11;17.60;46.90
28087;DHT22;15392;48.912;8.380;2023-05-01T02:52:39;17.50;46.90
28087;DHT22;15392;48.912;8.380;2023-05-01T02:55:05;17.50;47.00
28087;DHT22;15392;48.912;8.380;2023-05-01T02:57:32;17.50;47.00
28087;DHT22;15392;48.912;8.380;2023-05-01T02:59:59;17.50;47.00
28087;DHT22;15392;48.912;8.380;2023-05-01T03:02:24;17.40;46.90
28087;DHT22;15392;48.912;8.380;2023-05-01T03:04:50;17.40;47.00
28087;DHT22;15392;48.912;8.380;2023-05-01T03:07:16;17.40;47.10
28087;DHT22;15392;48.912;8.380;2023-05-01T03:09:42;17.40;47.00
28087;DHT22;15392;48.912;8.380;2023-05-01T03:12:08;17.40;47.00
28087;DHT22;15392;48.912;8.380;2023-05-01T03:14:33;17.30;46.90
28087;DHT22;15392;48.912;8.380;2023-05-01T03:16:59;17.30;46.90
28087;DHT22;15392;48.912;8.380;2023-05-01T03:19:28;17.30;47.00
28087;DHT22;15392;48.912;8.380;2023-05-01T03:21:54;17.30;47.00
28087;DHT22;15392;48.912;8.380;2023-05-01T03:24:20;17.30;47.00
28087;DHT22;15392;48.912;8.380;2023-05-01T03:26:46;17.20;47.10
28087;DHT22;15392;48.912;8.380;2023-05-01T03:29:11;17.20;47.10
28087;DHT22;15392;48.912;8.380;2023-05-01T03:31:37;17.20;47.30
28087;DHT22;15392;48.912;8.380;2023-05-01T03:34:03;17.20;47.40
28087;DHT22;15392;48.912;8.380;2023-05-01T03:36:29;17.10;47.30
28087;DHT22;15392;48.912;8.380;2023-05-01T03:38:54;17.20;47.40
28087;DHT22;15392;48.912;8.380;2023-05-01T03:41:20;17.10;47.40
28087;DHT22;15392;48.912;8.380;2023-05-01T03:43:46;17.20;47.40
28087;DHT22;15392;48.912;8.380;2023-05-01T03:46:12;17.10;47.40
28087;DHT22;15392;48.912;8.380;2023-05-01T03:48:37;17.10;47.50
28087;DHT22;15392;48.912;8.380;2023-05-01T03:51:03;17.10;47.40
28087;DHT22;15392;48.912;8.380;2023-05-01T03:53:29;17.10;48.10
28087;DHT22;15392;48.912;8.380;2023-05-01T03:55:56;17.10;47.40
28087;DHT22;15392;48.912;8.380;2023-05-01T03:58:22;17.10;47.50
28087;DHT22;15392;48.912;8.380;2023-05-01T04:00:48;17.10;47.50
28087;DHT22;15392;48.912;8.380;2023-05-01T04:03:15;17.10;47.50
28087;DHT22;15392;48.912;8.380;2023-05-01T04:05:41;17.10;47.50
28087;DHT22;15392;48.912;8.380;2023-05-01T04:08:07;17.00;47.50
28087;DHT22;15392;48.912;8.380;2023-05-01T04:10:33;17.00;47.50
28087;DHT22;15392;48.912;8.380;2023-05-01T04:13:00;17.00;47.40
28087;DHT22;15392;48.912;8.380;2023-05-01T04:15:25;17.00;47.50
28087;DHT22;15392;48.912;8.380;2023-05-01T04:17:51;17.00;47.40
28087;DHT22;15392;48.912;8.380;2023-05-01T04:20:18;17.00;47.40
28087;DHT22;15392;48.912;8.380;2023-05-01T04:22:44;17.00;47.40
28087;DHT22;15392;48.912;8.380;2023-05-01T04:25:10;17.00;47.50
28087;DHT22;15392;48.912;8.380;2023-05-01T04:27:36;17.00;47.50
28087;DHT22;15392;48.912;8.380;2023-05-01T04:30:02;17.00;47.60
28087;DHT22;15392;48.912;8.380;2023-05-01T04:32:27;16.90;47.60
28087;DHT22;15392;48.912;8.380;2023-05-01T04:34:53;16.90;47.60
28087;DHT22;15392;48.912;8.380;2023-05-01T04:37:19;16.90;47.70
28087;DHT22;15392;48.912;8.380;2023-05-01T04:39:44;16.90;47.70
28087;DHT22;15392;48.912;8.380;2023-05-01T04:42:10;16.90;47.60
28087;DHT22;15392;48.912;8.380;2023-05-01T04:44:36;16.90;47.60
28087;DHT22;15392;48.912;8.380;2023-05-01T04:47:04;16.90;47.60
28087;DHT22;15392;48.912;8.380;2023-05-01T04:49:30;16.90;47.60
28087;DHT22;15392;48.912;8.380;2023-05-01T04:51:56;16.90;47.50
28087;DHT22;15392;48.912;8.380;2023-05-01T04:54:22;16.90;47.50
28087;DHT22;15392;48.912;8.380;2023-05-01T04:56:49;16.90;47.50
28087;DHT22;15392;48.912;8.380;2023-05-01T04:59:15;16.90;47.50
28087;DHT22;15392;48.912;8.380;2023-05-01T05:01:42;16.90;47.50
28087;DHT22;15392;48.912;8.380;2023-05-01T05:04:08;16.90;47.60
28087;DHT22;15392;48.912;8.380;2023-05-01T05:06:33;16.90;47.60
28087;DHT22;15392;48.912;8.380;2023-05-01T05:08:59;16.90;47.60
28087;DHT22;15392;48.912;8.380;2023-05-01T05:11:25;16.90;47.70
28087;DHT22;15392;48.912;8.380;2023-05-01T05:13:51;16.90;47.80
28087;DHT22;15392;48.912;8.380;2023-05-01T05:16:17;16.90;47.80
28087;DHT22;15392;48.912;8.380;2023-05-01T05:18:43;16.90;47.90
28087;DHT22;15392;48.912;8.380;2023-05-01T05:21:08;16.90;47.90
28087;DHT22;15392;48.912;8.380;2023-05-01T05:23:35;16.90;47.90
28087;DHT22;15392;48.912;8.380;2023-05-01T05:26:01;16.90;47.90
28087;DHT22;15392;48.912;8.380;2023-05-01T05:28:28;16.90;48.00
28087;DHT22;15392;48.912;8.380;2023-05-01T05:30:55;16.90;47.90
28087;DHT22;15392;48.912;8.380;2023-05-01T05:33:21;16.90;47.90
28087;DHT22;15392;48.912;8.380;2023-05-01T05:35:52;16.90;48.20
28087;DHT22;15392;48.912;8.380;2023-05-01T05:38:18;17.00;48.20
28087;DHT22;15392;48.912;8.380;2023-05-01T05:40:44;17.00;48.30
28087;DHT22;15392;48.912;8.380;2023-05-01T05:43:10;17.00;48.30
28087;DHT22;15392;48.912;8.380;2023-05-01T05:45:36;17.00;48.30
28087;DHT22;15392;48.912;8.380;2023-05-01T05:48:02;17.10;48.40
28087;DHT22;15392;48.912;8.380;2023-05-01T05:50:28;17.10;48.30
28087;DHT22;15392;48.912;8.380;2023-05-01T05:52:54;17.10;48.30
28087;DHT22;15392;48.912;8.380;2023-05-01T05:55:20;17.10;48.30
28087;DHT22;15392;48.912;8.380;2023-05-01T05:57:46;17.10;48.30
28087;DHT22;15392;48.912;8.380;2023-05-01T06:00:12;17.20;48.40
28087;DHT22;15392;48.912;8.380;2023-05-01T06:02:39;17.20;48.20
28087;DHT22;15392;48.912;8.380;2023-05-01T06:05:05;17.20;48.20
28087;DHT22;15392;48.912;8.380;2023-05-01T06:07:31;17.20;48.30
28087;DHT22;15392;48.912;8.380;2023-05-01T06:09:57;17.20;48.20
28087;DHT22;15392;48.912;8.380;2023-05-01T06:12:30;17.20;48.20
28087;DHT22;15392;48.912;8.380;2023-05-01T06:14:57;17.20;48.20
28087;DHT22;15392;48.912;8.380;2023-05-01T06:17:23;17.20;48.10
28087;DHT22;15392;48.912;8.380;2023-05-01T06:19:50;17.10;48.70
28087;DHT22;15392;48.912;8.380;2023-05-01T06:22:20;17.10;48.10
28087;DHT22;15392;48.912;8.380;2023-05-01T06:24:46;17.10;48.30
28087;DHT22;15392;48.912;8.380;2023-05-01T06:27:12;17.10;48.30
28087;DHT22;15392;48.912;8.380;2023-05-01T06:29:38;17.10;48.30
28087;DHT22;15392;48.912;8.380;2023-05-01T06:32:04;17.20;48.40
28087;DHT22;15392;48.912;8.380;2023-05-01T06:34:30;17.10;48.30
28087;DHT22;15392;48.912;8.380;2023-05-01T06:36:56;17.10;48.40
28087;DHT22;15392;48.912;8.380;2023-05-01T06:39:22;17.20;48.30
28087;DHT22;15392;48.912;8.380;2023-05-01T06:41:48;17.20;48.40
28087;DHT22;15392;48.912;8.380;2023-05-01T06:44:14;17.20;48.50
28087;DHT22;15392;48.912;8.380;2023-05-01T06:46:40;17.20;48.40
28087;DHT22;15392;48.912;8.380;2023-05-01T06:49:06;17.20;48.30
28087;DHT22;15392;48.912;8.380;2023-05-01T06:51:32;17.30;48.40
28087;DHT22;15392;48.912;8.380;2023-05-01T06:53:58;17.30;48.40
28087;DHT22;15392;48.912;8.380;2023-05-01T06:56:24;17.30;48.40
28087;DHT22;15392;48.912;8.380;2023-05-01T06:58:50;17.40;48.50
28087;DHT22;15392;48.912;8.380;2023-05-01T07:01:16;17.40;48.50
28087;DHT22;15392;48.912;8.380;2023-05-01T07:03:42;17.40;48.50
28087;DHT22;15392;48.912;8.380;2023-05-01T07:06:10;17.50;48.50
28087;DHT22;15392;48.912;8.380;2023-05-01T07:08:36;17.50;48.60
28087;DHT22;15392;48.912;8.380;2023-05-01T07:11:02;17.50;48.50
28087;DHT22;15392;48.912;8.380;2023-05-01T07:13:28;17.60;48.60
28087;DHT22;15392;48.912;8.380;2023-05-01T07:15:53;17.60;48.60
28087;DHT22;15392;48.912;8.380;2023-05-01T07:18:19;17.60;48.60
28087;DHT22;15392;48.912;8.380;2023-05-01T07:20:45;17.60;48.60
28087;DHT22;15392;48.912;8.380;2023-05-01T07:23:11;17.60;48.50
28087;DHT22;15392;48.912;8.380;2023-05-01T07:25:37;17.70;48.50
28087;DHT22;15392;48.912;8.380;2023-05-01T07:28:06;17.70;48.40
28087;DHT22;15392;48.912;8.380;2023-05-01T07:30:33;17.70;48.40
28087;DHT22;15392;48.912;8.380;2023-05-01T07:33:00;17.70;48.40
28087;DHT22;15392;48.912;8.380;2023-05-01T07:35:26;17.70;48.50
28087;DHT22;15392;48.912;8.380;2023-05-01T07:37:52;17.70;48.60
28087;DHT22;15392;48.912;8.380;2023-05-01T07:40:19;17.80;48.60
28087;DHT22;15392;48.912;8.380;2023-05-01T07:42:45;17.80;48.60
28087;DHT22;15392;48.912;8.380;2023-05-01T07:45:11;17.80;49.30
28087;DHT22;15392;48.912;8.380;2023-05-01T07:47:37;17.80;48.70
28087;DHT22;15392;48.912;8.380;2023-05-01T07:50:03;17.80;48.70
28087;DHT22;15392;48.912;8.380;2023-05-01T07:52:32;17.80;48.80
28087;DHT22;15392;48.912;8.380;2023-05-01T07:54:58;17.80;48.80
28087;DHT22;15392;48.912;8.380;2023-05-01T07:57:23;17.90;48.90
28087;DHT22;15392;48.912;8.380;2023-05-01T07:59:54;17.90;49.40
28087;DHT22;15392;48.912;8.380;2023-05-01T08:02:21;17.90;49.10
28087;DHT22;15392;48.912;8.380;2023-05-01T08:04:47;17.90;48.90
28087;DHT22;15392;48.912;8.380;2023-05-01T08:07:13;17.90;49.00
28087;DHT22;15392;48.912;8.380;2023-05-01T08:09:39;18.00;49.60
28087;DHT22;15392;48.912;8.380;2023-05-01T08:12:05;18.10;48.80
28087;DHT22;15392;48.912;8.380;2023-05-01T08:14:31;18.10;49.00
28087;DHT22;15392;48.912;8.380;2023-05-01T08:16:57;18.10;49.00
28087;DHT22;15392;48.912;8.380;2023-05-01T08:19:24;18.20;48.80
28087;DHT22;15392;48.912;8.380;2023-05-01T08:21:50;18.30;48.60
28087;DHT22;15392;48.912;8.380;2023-05-01T08:24:16;18.30;48.60
28087;DHT22;15392;48.912;8.380;2023-05-01T08:26:42;18.40;48.80
28087;DHT22;15392;48.912;8.380;2023-05-01T08:29:08;18.40;48.80
28087;DHT22;15392;48.912;8.380;2023-05-01T08:31:34;18.40;48.60
28087;DHT22;15392;48.912;8.380;2023-05-01T08:34:02;18.40;48.50
28087;DHT22;15392;48.912;8.380;2023-05-01T08:36:31;18.40;48.60
28087;DHT22;15392;48.912;8.380;2023-05-01T08:39:03;18.50;48.50
28087;DHT22;15392;48.912;8.380;2023-05-01T08:41:31;18.50;49.10
28087;DHT22;15392;48.912;8.380;2023-05-01T08:43:59;18.50;48.60
28087;DHT22;15392;48.912;8.380;2023-05-01T08:46:43;18.60;48.60
28087;DHT22;15392;48.912;8.380;2023-05-01T08:49:16;18.60;48.70
28087;DHT22;15392;48.912;8.380;2023-05-01T08:51:46;18.60;48.70
28087;DHT22;15392;48.912;8.380;2023-05-01T08:54:19;18.70;48.70
28087;DHT22;15392;48.912;8.380;2023-05-01T08:56:50;18.70;48.80
28087;DHT22;15392;48.912;8.380;2023-05-01T08:59:18;18.80;48.90
28087;DHT22;15392;48.912;8.380;2023-05-01T09:01:45;18.80;48.70
28087;DHT22;15392;48.912;8.380;2023-05-01T09:04:13;18.90;48.80
28087;DHT22;15392;48.912;8.380;2023-05-01T09:06:40;19.00;49.00
28087;DHT22;15392;48.912;8.380;2023-05-01T09:09:09;19.00;49.00
28087;DHT22;15392;48.912;8.380;2023-05-01T09:11:35;19.10;48.90
28087;DHT22;15392;48.912;8.380;2023-05-01T09:14:02;19.20;48.90
28087;DHT22;15392;48.912;8.380;2023-05-01T09:16:30;19.20;48.90
28087;DHT22;15392;48.912;8.380;2023-05-01T09:18:58;19.30;48.80
28087;DHT22;15392;48.912;8.380;2023-05-01T09:21:26;19.40;48.70
28087;DHT22;15392;48.912;8.380;2023-05-01T09:23:53;19.50;48.60
28087;DHT22;15392;48.912;8.380;2023-05-01T09:26:19;19.50;48.60
28087;DHT22;15392;48.912;8.380;2023-05-01T09:28:47;19.60;48.70
28087;DHT22;15392;48.912;8.380;2023-05-01T09:31:23;19.60;48.60
28087;DHT22;15392;48.912;8.380;2023-05-01T09:34:11;19.60;48.70
28087;DHT22;15392;48.912;8.380;2023-05-01T09:36:37;19.70;48.70
28087;DHT22;15392;48.912;8.380;2023-05-01T09:39:03;19.70;48.70
28087;DHT22;15392;48.912;8.380;2023-05-01T09:41:29;19.80;48.80
28087;DHT22;15392;48.912;8.380;2023-05-01T09:43:58;19.80;48.60
28087;DHT22;15392;48.912;8.380;2023-05-01T09:46:25;19.80;48.60
28087;DHT22;15392;48.912;8.380;2023-05-01T09:51:31;19.90;48.60
28087;DHT22;15392;48.912;8.380;2023-05-01T09:54:00;19.90;48.60
28087;DHT22;15392;48.912;8.380;2023-05-01T09:56:28;20.00;48.60
28087;DHT22;15392;48.912;8.380;2023-05-01T09:59:13;20.00;48.70
28087;DHT22;15392;48.912;8.380;2023-05-01T10:01:45;20.10;48.70
28087;DHT22;15392;48.912;8.380;2023-05-01T10:04:13;20.20;48.90
28087;DHT22;15392;48.912;8.380;2023-05-01T10:06:39;20.20;48.50
28087;DHT22;15392;48.912;8.380;2023-05-01T10:09:06;20.30;48.50
28087;DHT22;15392;48.912;8.380;2023-05-01T10:11:52;20.30;48.40
28087;DHT22;15392;48.912;8.380;2023-05-01T10:14:22;20.40;48.30
28087;DHT22;15392;48.912;8.380;2023-05-01T10:16:53;20.40;48.30
28087;DHT22;15392;48.912;8.380;2023-05-01T10:19:20;20.50;48.30
28087;DHT22;15392;48.912;8.380;2023-05-01T10:21:46;20.50;48.40
28087;DHT22;15392;48.912;8.380;2023-05-01T10:24:12;20.70;48.60
28087;DHT22;15392;48.912;8.380;2023-05-01T10:26:41;20.80;48.60
28087;DHT22;15392;48.912;8.380;2023-05-01T10:29:08;20.90;48.60
28087;DHT22;15392;48.912;8.380;2023-05-01T10:31:37;21.00;48.20
28087;DHT22;15392;48.912;8.380;2023-05-01T10:34:03;21.20;48.10
28087;DHT22;15392;48.912;8.380;2023-05-01T10:36:44;21.30;48.00
28087;DHT22;15392;48.912;8.380;2023-05-01T10:39:33;21.40;47.80
28087;DHT22;15392;48.912;8.380;2023-05-01T10:42:07;21.50;47.70
28087;DHT22;15392;48.912;8.380;2023-05-01T10:44:40;21.60;47.70
28087;DHT22;15392;48.912;8.380;2023-05-01T10:52:30;22.00;47.50
28087;DHT22;15392;48.912;8.380;2023-05-01T10:55:36;22.10;47.60
28087;DHT22;15392;48.912;8.380;2023-05-01T10:58:03;22.20;47.50
28087;DHT22;15392;48.912;8.380;2023-05-01T11:00:30;22.20;47.40
28087;DHT22;15392;48.912;8.380;2023-05-01T11:08:29;22.40;46.90
28087;DHT22;15392;48.912;8.380;2023-05-01T11:21:30;22.60;46.80
28087;DHT22;15392;48.912;8.380;2023-05-01T11:24:08;22.70;46.80
28087;DHT22;15392;48.912;8.380;2023-05-01T11:26:39;22.70;46.50
28087;DHT22;15392;48.912;8.380;2023-05-01T11:29:08;22.80;46.50
28087;DHT22;15392;48.912;8.380;2023-05-01T11:31:35;22.80;46.70
28087;DHT22;15392;48.912;8.380;2023-05-01T11:34:02;22.90;46.80
28087;DHT22;15392;48.912;8.380;2023-05-01T11:36:46;22.90;46.80
28087;DHT22;15392;48.912;8.380;2023-05-01T11:39:14;23.00;46.70
28087;DHT22;15392;48.912;8.380;2023-05-01T11:41:45;23.00;46.70
28087;DHT22;15392;48.912;8.380;2023-05-01T11:44:14;23.10;46.50
28087;DHT22;15392;48.912;8.380;2023-05-01T11:46:42;23.10;46.60
28087;DHT22;15392;48.912;8.380;2023-05-01T11:49:08;23.10;46.40
28087;DHT22;15392;48.912;8.380;2023-05-01T11:51:35;23.20;46.40
28087;DHT22;15392;48.912;8.380;2023-05-01T11:54:09;23.20;46.60
28087;DHT22;15392;48.912;8.380;2023-05-01T11:56:36;23.20;46.30
28087;DHT22;15392;48.912;8.380;2023-05-01T11:59:15;23.30;46.60
28087;DHT22;15392;48.912;8.380;2023-05-01T12:01:43;23.30;46.40
28087;DHT22;15392;48.912;8.380;2023-05-01T12:04:15;23.40;46.70
28087;DHT22;15392;48.912;8.380;2023-05-01T12:06:48;23.50;46.70
28087;DHT22;15392;48.912;8.380;2023-05-01T12:09:21;23.50;46.70
28087;DHT22;15392;48.912;8.380;2023-05-01T12:11:52;23.50;46.50
28087;DHT22;15392;48.912;8.380;2023-05-01T12:14:19;23.60;46.40
28087;DHT22;15392;48.912;8.380;2023-05-01T12:16:46;23.60;46.10
28087;DHT22;15392;48.912;8.380;2023-05-01T12:19:14;23.60;46.10
28087;DHT22;15392;48.912;8.380;2023-05-01T12:21:41;23.60;45.90
28087;DHT22;15392;48.912;8.380;2023-05-01T12:24:17;23.60;46.00
28087;DHT22;15392;48.912;8.380;2023-05-01T12:26:59;23.70;45.80
28087;DHT22;15392;48.912;8.380;2023-05-01T12:29:38;23.70;45.80
28087;DHT22;15392;48.912;8.380;2023-05-01T12:32:06;23.80;45.60
28087;DHT22;15392;48.912;8.380;2023-05-01T12:34:32;23.80;46.20
28087;DHT22;15392;48.912;8.380;2023-05-01T12:36:59;23.90;46.30
28087;DHT22;15392;48.912;8.380;2023-05-01T12:39:25;24.00;46.10
28087;DHT22;15392;48.912;8.380;2023-05-01T12:41:52;24.00;46.20
28087;DHT22;15392;48.912;8.380;2023-05-01T12:47:11;24.20;45.90
28087;DHT22;15392;48.912;8.380;2023-05-01T12:49:37;24.30;45.20
28087;DHT22;15392;48.912;8.380;2023-05-01T12:52:05;24.30;45.60
28087;DHT22;15392;48.912;8.380;2023-05-01T12:54:37;24.30;45.50
28087;DHT22;15392;48.912;8.380;2023-05-01T12:59:36;24.40;45.50
28087;DHT22;15392;48.912;8.380;2023-05-01T13:02:08;24.40;45.50
28087;DHT22;15392;48.912;8.380;2023-05-01T13:04:40;24.40;45.40
28087;DHT22;15392;48.912;8.380;2023-05-01T13:07:11;24.40;45.50
28087;DHT22;15392;48.912;8.380;2023-05-01T13:09:57;24.40;45.30
28087;DHT22;15392;48.912;8.380;2023-05-01T13:12:25;24.40;44.90
28087;DHT22;15392;48.912;8.380;2023-05-01T13:14:52;24.40;45.40
28087;DHT22;15392;48.912;8.380;2023-05-01T13:17:26;24.40;45.30
28087;DHT22;15392;48.912;8.380;2023-05-01T13:20:03;24.40;45.10
28087;DHT22;15392;48.912;8.380;2023-05-01T13:25:01;24.50;45.30
28087;DHT22;15392;48.912;8.380;2023-05-01T13:27:29;24.50;45.30
28087;DHT22;15392;48.912;8.380;2023-05-01T13:29:57;24.50;45.30
28087;DHT22;15392;48.912;8.380;2023-05-01T13:32:24;24.60;45.10
28087;DHT22;15392;48.912;8.380;2023-05-01T13:34:52;24.60;45.20
28087;DHT22;15392;48.912;8.380;2023-05-01T13:37:30;24.60;45.10
28087;DHT22;15392;48.912;8.380;2023-05-01T13:39:58;24.70;45.10
28087;DHT22;15392;48.912;8.380;2023-05-01T13:42:24;24.70;45.10
28087;DHT22;15392;48.912;8.380;2023-05-01T13:44:57;24.70;45.00
28087;DHT22;15392;48.912;8.380;2023-05-01T13:47:35;24.80;44.80
28087;DHT22;15392;48.912;8.380;2023-05-01T13:50:16;24.80;45.00
28087;DHT22;15392;48.912;8.380;2023-05-01T13:52:45;24.90;44.90
28087;DHT22;15392;48.912;8.380;2023-05-01T13:55:15;24.90;44.50
28087;DHT22;15392;48.912;8.380;2023-05-01T13:57:42;24.90;44.70
28087;DHT22;15392;48.912;8.380;2023-05-01T14:00:13;25.00;44.90
28087;DHT22;15392;48.912;8.380;2023-05-01T14:02:46;25.00;44.80
28087;DHT22;15392;48.912;8.380;2023-05-01T14:05:14;25.00;44.70
28087;DHT22;15392;48.912;8.380;2023-05-01T14:07:48;25.00;44.80
28087;DHT22;15392;48.912;8.380;2023-05-01T14:10:26;25.00;44.20
28087;DHT22;15392;48.912;8.380;2023-05-01T14:12:59;25.00;44.30
28087;DHT22;15392;48.912;8.380;2023-05-01T14:15:26;25.10;43.90
28087;DHT22;15392;48.912;8.380;2023-05-01T14:17:53;25.00;44.30
28087;DHT22;15392;48.912;8.380;2023-05-01T14:20:19;25.00;44.30
28087;DHT22;15392;48.912;8.380;2023-05-01T14:22:47;25.00;44.20
28087;DHT22;15392;48.912;8.380;2023-05-01T14:25:30;24.90;44.40
28087;DHT22;15392;48.912;8.380;2023-05-01T14:28:01;24.90;44.30
28087;DHT22;15392;48.912;8.380;2023-05-01T14:30:32;24.90;44.20
28087;DHT22;15392;48.912;8.380;2023-05-01T14:33:06;24.90;44.70
28087;DHT22;15392;48.912;8.380;2023-05-01T14:35:34;24.90;44.60
28087;DHT22;15392;48.912;8.380;2023-05-01T14:38:09;24.80;44.90
28087;DHT22;15392;48.912;8.380;2023-05-01T14:40:38;24.80;44.60
28087;DHT22;15392;48.912;8.380;2023-05-01T14:43:06;24.70;44.90
28087;DHT22;15392;48.912;8.380;2023-05-01T14:45:35;24.70;45.40
28087;DHT22;15392;48.912;8.380;2023-05-01T14:48:01;24.70;47.60
28087;DHT22;15392;48.912;8.380;2023-05-01T14:50:28;24.50;47.90
28087;DHT22;15392;48.912;8.380;2023-05-01T14:52:57;24.30;48.30
28087;DHT22;15392;48.912;8.380;2023-05-01T14:55:30;24.10;48.60
28087;DHT22;15392;48.912;8.380;2023-05-01T14:58:00;24.00;48.70
28087;DHT22;15392;48.912;8.380;2023-05-01T15:00:26;23.80;48.60
28087;DHT22;15392;48.912;8.380;2023-05-01T15:02:53;23.60;48.10
28087;DHT22;15392;48.912;8.380;2023-05-01T15:05:21;23.50;47.40
28087;DHT22;15392;48.912;8.380;2023-05-01T15:07:50;23.40;47.10
28087;DHT22;15392;48.912;8.380;2023-05-01T15:10:18;23.20;47.60
28087;DHT22;15392;48.912;8.380;2023-05-01T15:12:45;23.20;47.00
28087;DHT22;15392;48.912;8.380;2023-05-01T15:15:12;23.00;47.10
28087;DHT22;15392;48.912;8.380;2023-05-01T15:17:37;22.90;47.30
28087;DHT22;15392;48.912;8.380;2023-05-01T15:20:04;22.80;47.60
28087;DHT22;15392;48.912;8.380;2023-05-01T15:22:31;22.70;47.80
28087;DHT22;15392;48.912;8.380;2023-05-01T15:24:57;22.60;47.90
28087;DHT22;15392;48.912;8.380;2023-05-01T15:27:22;22.50;47.70
28087;DHT22;15392;48.912;8.380;2023-05-01T15:29:48;22.30;47.60
28087;DHT22;15392;48.912;8.380;2023-05-01T15:32:14;22.20;47.70
28087;DHT22;15392;48.912;8.380;2023-05-01T15:34:40;22.10;48.00
28087;DHT22;15392;48.912;8.380;2023-05-01T15:37:07;22.00;48.30
28087;DHT22;15392;48.912;8.380;2023-05-01T15:39:33;22.00;48.40
28087;DHT22;15392;48.912;8.380;2023-05-01T15:41:59;21.90;48.40
28087;DHT22;15392;48.912;8.380;2023-05-01T15:44:25;21.80;49.00
28087;DHT22;15392;48.912;8.380;2023-05-01T15:46:52;21.80;48.90
28087;DHT22;15392;48.912;8.380;2023-05-01T15:49:18;21.70;49.20
28087;DHT22;15392;48.912;8.380;2023-05-01T15:51:43;21.70;49.20
28087;DHT22;15392;48.912;8.380;2023-05-01T15:54:09;21.70;50.00
28087;DHT22;15392;48.912;8.380;2023-05-01T15:56:36;21.70;49.70
28087;DHT22;15392;48.912;8.380;2023-05-01T15:59:03;21.70;49.70
28087;DHT22;15392;48.912;8.380;2023-05-01T16:01:31;21.60;49.60
28087;DHT22;15392;48.912;8.380;2023-05-01T16:03:58;21.60;49.60
28087;DHT22;15392;48.912;8.380;2023-05-01T16:06:25;21.60;49.40
28087;DHT22;15392;48.912;8.380;2023-05-01T16:08:53;21.60;49.50
28087;DHT22;15392;48.912;8.380;2023-05-01T16:11:22;21.60;49.60
28087;DHT22;15392;48.912;8.380;2023-05-01T16:13:48;21.60;49.80
28087;DHT22;15392;48.912;8.380;2023-05-01T16:16:24;21.60;49.60
28087;DHT22;15392;48.912;8.380;2023-05-01T16:18:53;21.60;49.60
28087;DHT22;15392;48.912;8.380;2023-05-01T16:21:24;21.60;49.40
28087;DHT22;15392;48.912;8.380;2023-05-01T16:23:51;21.60;49.10
28087;DHT22;15392;48.912;8.380;2023-05-01T16:26:24;21.60;49.10